KMTN

Martin State Airport

Baltimore, Maryland, USA

KMTN 241720Z 2418/2518 10005KT P6SM FEW060 FM251300 04004KT P6SM FEW250

Issued Valid From Valid To
Sep-24 @ 17:20 UTC
(4 hours ago)
Sep-24 @ 18:00 UTC
(3 hours ago)
Sep-25 @ 18:00 UTC
(in 21 hours)
Sep-24 @ 18:00 - Sep-25 @ 13:00
Wind Visibility Clouds
100° at 5 knots Greater than 6 miles
  • Few at 6,000' AGL
From Sep-25 @ 13:00 - Sep-25 @ 18:00
Wind Visibility Clouds
40° at 4 knots Greater than 6 miles
  • Few at 25,000' AGL
Issued Sep-24 @ 17:20 UTC
(4 hours ago)
Valid From Sep-24 @ 18:00 UTC
(3 hours ago)
Valid To Sep-25 @ 18:00 UTC
(in 21 hours)
Sep-24 @ 18:00 - Sep-25 @ 13:00
Wind Visibility
100° at 5 knots Greater than 6 miles
Clouds
  • Few at 6,000' AGL
From Sep-25 @ 13:00 - Sep-25 @ 18:00
Wind Visibility
40° at 4 knots Greater than 6 miles
Clouds
  • Few at 25,000' AGL